Mount Crawford, VA (22841)

6:43 PM EST on February 10, 2016 (GMT -0500)
Mount Crawford | | Change Station
CLOSE
Current Station
Personal Weather Station
Location: Mount Crawford, VA
Elevation: 1210 ft
Nearby Weather Stations

Elev 1210 ft 38.36 °N, 78.94 °W | Updated 13 seconds ago

Partly Cloudy
Partly Cloudy
21.9 °F
Feels Like 22 °F
N
0.0
Wind Variable Wind from NNW
Gusts 0.0 mph

Today
High -- | Low -- °F
--% Chance of Precip.
Yesterday
High -- | Low -- °F
Precip. -- in
Pressure 29.90 in
Visibility 10.0 miles
Clouds Scattered Clouds 5000 ft
Windchill 22 °F
Dew Point 2 °F
Humidity 41%
Rainfall 0.00 in
Snow Depth Not available.
7:12 AM 5:47 PM
Waxing Crescent, 8% visible
METAR KSHD 102335Z AUTO 29010KT 10SM SCT050 M03/M15 A2990 RMK AO2 T10301148
Pressure 29.90 in
Visibility 10.0 miles
Clouds Scattered Clouds 5000 ft
Windchill 22 °F
Dew Point 2 °F
Humidity 41%
Rainfall 0.00 in
Snow Depth Not available.
7:12 AM 5:47 PM
Waxing Crescent, 8% visible
METAR KSHD 102335Z AUTO 29010KT 10SM SCT050 M03/M15 A2990 RMK AO2 T10301148

10-Day Weather Forecast

Almanac

Astronomy

Feb. 10, 2016 Rise Set
Actual Time
Civil Twilight
Nautical Twilight
Astronomical Twilight
Moon
Length of Visible Light
Length of Day
Tomorrow will be .
, % of the Moon is Illuminated

Today's Extremes

State Highs State Lows

Community

WunderPhotos

Upload Photos

1,891,935 photos uploaded!

WunderBlog® & News

Nearby

Air Quality

  Air Quality AQ Index Pollutant
Not available.

Snow Depth

Station Depth Elevation

Earthquake Activity

City Distance Mag. Time & Date
Minimum magnitude displayed is 2.5.

Coastal Water Temperatures

Place Temperature

Stations

Nearby Weather Stations

Station Location Temp. Windchill Dew Point Humidity Wind Precip. Elev Updated Type
                   

Watches & Warnings

There are currently no watches in effect.